Time;durP1;ratioP1;P1;durP2;ratioP2;P2;SDS_P1;SDS_P2;PMS_P1;PMS_P2;Temp;Humidity;BMP_temperature;BMP_pressure;BME280_temperature;BME280_humidity;BME280_pressure;Samples;Min_cycle;Max_cycle;Signal;HPM_P1;HPM_P2
2023/01/14 00:02:01;;;;;;;0.10;0.10;;;;;;;9.80;60.22;101468.94;5078262;28;20091;-80
2023/01/14 00:04:27;;;;;;;0.20;0.20;;;;;;;9.79;60.04;101473.31;5073321;28;20028;-80
2023/01/14 00:06:53;;;;;;;0.10;0.10;;;;;;;9.81;60.05;101473.34;5074844;28;20035;-80
2023/01/14 00:09:19;;;;;;;0.10;0.10;;;;;;;9.83;60.27;101479.47;5073220;28;20051;-80
2023/01/14 00:11:46;;;;;;;0.10;0.10;;;;;;;9.81;60.35;101473.34;5078490;28;20526;-80
2023/01/14 00:14:18;;;;;;;0.10;0.10;;;;;;;9.85;60.63;101467.13;5079870;28;20028;-79
2023/01/14 00:16:45;;;;;;;0.20;0.20;;;;;;;9.84;60.21;101466.25;5069657;28;20040;-79
2023/01/14 00:19:11;;;;;;;0.10;0.10;;;;;;;9.79;60.44;101472.47;5076631;28;20028;-79
2023/01/14 00:21:38;;;;;;;0.10;0.10;;;;;;;9.78;60.36;101470.69;5073821;28;20419;-79
2023/01/14 00:24:04;;;;;;;0.10;0.10;;;;;;;9.75;60.46;101473.38;5075106;28;20024;-79
2023/01/14 00:26:31;;;;;;;0.10;0.10;;;;;;;9.68;60.70;101473.41;5073440;28;20036;-79
2023/01/14 00:28:57;;;;;;;0.10;0.10;;;;;;;9.65;60.78;101476.06;5073939;28;20049;-79
2023/01/14 00:31:26;;;;;;;0.13;0.13;;;;;;;9.65;60.97;101480.50;5074727;28;20024;-79
2023/01/14 00:33:53;;;;;;;0.52;0.52;;;;;;;9.66;61.25;101472.53;5084275;28;20111;-79
2023/01/14 00:36:21;;;;;;;0.10;0.10;;;;;;;9.63;61.21;101472.56;5080460;28;20074;-79
2023/01/14 00:38:48;;;;;;;0.93;0.93;;;;;;;9.66;61.33;101466.38;5073375;28;20043;-79
2023/01/14 00:41:18;;;;;;;0.10;0.10;;;;;;;9.61;61.53;101469.03;5073302;28;21640;-79
2023/01/14 00:43:48;;;;;;;0.30;0.30;;;;;;;9.62;61.56;101467.25;5072644;28;20033;-79
2023/01/14 00:46:17;;;;;;;1.05;1.05;;;;;;;9.54;62.14;101470.84;5085851;28;20051;-78
2023/01/14 00:48:43;;;;;;;0.20;0.20;;;;;;;9.57;62.41;101462.03;5083440;28;20036;-79
2023/01/14 00:51:11;;;;;;;0.17;0.17;;;;;;;9.51;62.58;101477.94;5080901;28;20033;-79
2023/01/14 00:53:39;;;;;;;0.20;0.20;;;;;;;9.59;62.79;101481.38;5082515;28;20078;-79
2023/01/14 00:56:06;;;;;;;0.20;0.20;;;;;;;9.60;62.95;101477.88;5082000;28;20025;-80
2023/01/14 00:58:32;;;;;;;0.10;0.10;;;;;;;9.53;63.19;101478.78;5082255;28;20025;-78
2023/01/14 01:00:59;;;;;;;0.15;0.15;;;;;;;9.60;62.88;101480.50;5082416;28;20040;-79
2023/01/14 01:03:25;;;;;;;0.10;0.10;;;;;;;9.61;62.90;101484.00;5086200;28;20082;-79
2023/01/14 01:05:52;;;;;;;0.10;0.10;;;;;;;9.61;62.90;101474.34;5082023;28;20033;-79
2023/01/14 01:08:20;;;;;;;0.10;0.10;;;;;;;9.59;62.92;101470.81;5084188;28;20082;-78
2023/01/14 01:10:48;;;;;;;0.10;0.10;;;;;;;9.55;63.42;101466.44;5084664;28;20052;-78
2023/01/14 01:13:15;;;;;;;0.10;0.10;;;;;;;9.53;62.73;101468.19;5081858;28;20252;-79
2023/01/14 01:15:42;;;;;;;0.35;0.35;;;;;;;9.50;63.27;101471.75;5074408;28;20059;-79
2023/01/14 01:18:10;;;;;;;0.10;0.10;;;;;;;9.44;63.38;101471.78;5080299;28;20024;-79
2023/01/14 01:20:36;;;;;;;0.10;0.10;;;;;;;9.38;63.73;101467.41;5081310;28;20587;-79
2023/01/14 01:23:03;;;;;;;0.10;0.10;;;;;;;9.32;63.45;101462.16;5081936;28;20028;-79
2023/01/14 01:25:29;;;;;;;0.63;0.63;;;;;;;9.21;63.73;101456.91;5082232;28;20028;-79
2023/01/14 01:27:57;;;;;;;0.10;0.10;;;;;;;9.15;64.37;101464.00;5081714;28;20024;-79
2023/01/14 01:30:25;;;;;;;0.47;0.47;;;;;;;9.11;64.17;101471.06;5080572;28;20036;-80
2023/01/14 01:32:53;;;;;;;0.10;0.10;;;;;;;9.04;64.61;101472.81;5082222;28;20036;-80
2023/01/14 01:35:19;;;;;;;0.20;0.20;;;;;;;8.96;64.69;101468.44;5080718;28;20024;-79
2023/01/14 01:37:45;;;;;;;0.57;0.57;;;;;;;8.90;65.05;101464.06;5080707;28;20267;-80
2023/01/14 01:40:12;;;;;;;0.65;0.65;;;;;;;8.87;65.94;101453.50;5079846;28;20025;-79
2023/01/14 01:42:54;;;;;;;0.10;0.10;;;;;;;8.81;65.47;101462.34;5078996;28;20032;-79
2023/01/14 01:45:43;;;;;;;0.20;0.20;;;;;;;8.84;65.20;101469.38;5079500;28;20031;-80
2023/01/14 01:48:14;;;;;;;0.10;0.10;;;;;;;8.75;65.59;101470.28;5074049;28;20488;-79
2023/01/14 01:50:44;;;;;;;0.10;0.10;;;;;;;8.62;66.77;101465.91;5069411;28;20024;-79
2023/01/14 01:53:11;;;;;;;0.10;0.10;;;;;;;8.63;66.64;101468.53;5074162;28;20032;-79
2023/01/14 01:55:40;;;;;;;0.15;0.15;;;;;;;8.64;66.53;101454.44;5078619;28;20450;-80
2023/01/14 01:58:08;;;;;;;0.52;0.52;;;;;;;8.63;66.92;101450.03;5079082;28;20020;-79
2023/01/14 02:00:34;;;;;;;0.20;0.20;;;;;;;8.58;67.51;101449.19;5077714;28;20035;-80
2023/01/14 02:03:06;;;;;;;0.10;0.10;;;;;;;8.53;66.83;101432.47;5079630;28;20024;-79
2023/01/14 02:05:32;;;;;;;0.20;0.20;;;;;;;8.47;67.22;101429.84;5074087;28;20036;-79
2023/01/14 02:07:59;;;;;;;0.10;0.10;;;;;;;8.43;67.76;101426.28;5076971;28;20074;-80
2023/01/14 02:10:53;;;;;;;0.15;0.15;;;;;;;8.47;67.41;101420.13;5074396;28;20471;-79
2023/01/14 02:13:37;;;;;;;0.13;0.13;;;;;;;8.40;67.50;101413.09;5081673;28;20036;-79
2023/01/14 02:16:24;;;;;;;0.50;0.50;;;;;;;8.34;68.23;101411.34;5085753;28;20407;-79
2023/01/14 02:19:03;;;;;;;0.10;0.10;;;;;;;8.29;68.49;101405.19;5077160;28;20032;-79
2023/01/14 02:21:33;;;;;;;0.10;0.10;;;;;;;8.19;68.16;101401.69;5077286;28;20029;-79
2023/01/14 02:27:18;;;;;;;0.63;0.63;;;;;;;8.15;69.24;101391.13;5124148;27;1169511;-77
2023/01/14 02:32:46;;;;;;;0.10;0.10;;;;;;;8.08;69.00;101396.41;5118441;27;20152;-78
2023/01/14 02:38:42;;;;;;;0.10;0.10;;;;;;;7.98;68.88;101392.00;5109431;27;20385;-78
2023/01/14 02:44:11;;;;;;;0.10;0.10;;;;;;;7.86;68.69;101392.91;5075730;28;20387;-78
2023/01/14 02:46:48;;;;;;;0.10;0.10;;;;;;;7.78;70.16;101381.47;5075383;28;20181;-79
2023/01/14 02:49:22;;;;;;;0.13;0.13;;;;;;;7.77;69.94;101383.22;5065404;28;20017;-79
2023/01/14 02:51:48;;;;;;;0.13;0.13;;;;;;;7.74;70.74;101383.22;5074319;28;20029;-78
2023/01/14 02:54:16;;;;;;;0.10;0.10;;;;;;;7.75;70.28;101384.97;5074103;28;20029;-78
2023/01/14 02:56:44;;;;;;;0.10;0.10;;;;;;;7.76;70.15;101378.84;5054361;28;20052;-78
2023/01/14 02:59:25;;;;;;;0.20;0.20;;;;;;;7.78;69.75;101377.06;5053527;28;20087;-79
2023/01/14 03:02:17;;;;;;;0.20;0.20;;;;;;;7.82;70.21;101371.78;5057170;28;20115;-78
2023/01/14 03:05:09;;;;;;;0.20;0.20;;;;;;;7.73;70.97;101370.91;5067416;28;20053;-78
2023/01/14 03:15:52;;;;;;;0.10;0.10;;;;;;;7.73;70.50;101348.94;5116873;27;20407;-78
2023/01/14 03:18:28;;;;;;;0.10;0.10;;;;;;;7.76;70.56;101343.66;5107366;28;20032;-78
2023/01/14 03:21:01;;;;;;;0.10;0.10;;;;;;;7.76;70.19;101339.25;5108802;28;20140;-79
2023/01/14 03:23:30;;;;;;;0.17;0.17;;;;;;;7.80;70.17;101320.78;5114051;28;20051;-78
2023/01/14 03:25:59;;;;;;;3.25;2.95;;;;;;;7.84;70.22;101325.16;5114364;28;20036;-78
2023/01/14 03:28:30;;;;;;;0.20;0.20;;;;;;;7.82;70.00;101316.41;5107010;28;20028;-79
2023/01/14 03:31:06;;;;;;;0.20;0.20;;;;;;;7.85;70.15;101313.75;5113541;28;20097;-78
2023/01/14 03:33:39;;;;;;;0.20;0.20;;;;;;;7.86;69.85;101318.13;5110089;28;20503;-78
2023/01/14 03:36:06;;;;;;;0.10;0.10;;;;;;;7.84;70.52;101315.50;5115997;28;20040;-78
2023/01/14 03:38:40;;;;;;;0.20;0.20;;;;;;;7.92;69.93;101305.84;5119022;28;20028;-78
2023/01/14 03:41:08;;;;;;;0.10;0.10;;;;;;;7.92;70.02;101304.94;5124985;28;20522;-79
2023/01/14 03:43:50;;;;;;;0.10;0.10;;;;;;;8.00;69.64;101303.19;5140480;27;20035;-79
2023/01/14 03:46:17;;;;;;;0.20;0.20;;;;;;;7.94;69.81;101290.00;5122923;28;20043;-78
2023/01/14 03:48:44;;;;;;;0.15;0.15;;;;;;;7.98;70.24;101294.38;5123887;28;20027;-78
2023/01/14 03:54:03;;;;;;;0.10;0.10;;;;;;;8.04;69.57;101275.03;5077569;28;20379;-78
2023/01/14 03:59:17;;;;;;;1.60;0.73;;;;;;;7.96;70.54;101258.31;5105677;27;1173480;-79
2023/01/14 04:01:47;;;;;;;;;;;;;;;8.05;70.25;101245.97;5122259;28;20285;-79
2023/01/14 04:04:13;;;;;;;0.30;0.30;;;;;;;8.01;70.74;101243.34;5122422;28;20011;-79
2023/01/14 04:06:40;;;;;;;0.10;0.10;;;;;;;8.03;70.08;101237.19;5125552;27;20039;-79
2023/01/14 04:09:08;;;;;;;0.10;0.10;;;;;;;8.04;70.53;101223.13;5126524;28;20574;-79
2023/01/14 04:11:35;;;;;;;0.30;0.30;;;;;;;8.05;70.82;101224.88;5128625;28;20117;-79
2023/01/14 04:16:47;;;;;;;0.20;0.20;;;;;;;8.11;70.81;101208.13;5128887;28;20441;-79
2023/01/14 04:19:13;;;;;;;0.10;0.10;;;;;;;8.14;71.01;101196.66;5129010;27;20047;-79
2023/01/14 04:21:40;;;;;;;0.10;0.10;;;;;;;8.17;70.99;101197.53;5128708;27;20110;-79
2023/01/14 04:24:07;;;;;;;0.20;0.20;;;;;;;8.19;70.90;101192.28;5126043;27;20512;-79
2023/01/14 04:26:33;;;;;;;0.10;0.10;;;;;;;8.18;70.92;101198.44;5130942;28;20067;-79
2023/01/14 04:28:59;;;;;;;0.10;0.10;;;;;;;8.20;71.20;101196.66;5129717;27;20134;-79
2023/01/14 04:31:25;;;;;;;0.10;0.10;;;;;;;8.20;71.57;101194.00;5130666;28;20064;-79
2023/01/14 04:33:51;;;;;;;0.10;0.10;;;;;;;8.25;71.56;101189.63;5129545;28;20097;-79
2023/01/14 04:36:17;;;;;;;0.10;0.10;;;;;;;8.27;71.20;101177.25;5131626;28;20036;-79
2023/01/14 04:38:44;;;;;;;0.15;0.15;;;;;;;8.28;71.43;101179.03;5130606;28;20020;-79
2023/01/14 04:42:26;;;;;;;0.10;0.10;;;;;;;8.27;71.80;101169.34;5136567;27;20092;-79
2023/01/14 04:43:57;;;;;;;0.10;0.10;;;;;;;8.29;72.19;101170.22;5140297;27;20054;-78
2023/01/14 04:46:23;;;;;;;0.10;0.10;;;;;;;8.32;71.35;101164.91;5141682;27;20482;-79
2023/01/14 04:48:49;;;;;;;0.10;0.10;;;;;;;8.33;71.57;101166.66;5139949;27;20512;-79
2023/01/14 04:51:15;;;;;;;0.10;0.10;;;;;;;8.37;71.46;101160.50;5143096;27;20395;-79
2023/01/14 04:53:41;;;;;;;0.63;0.63;;;;;;;8.34;71.52;101147.31;5130691;28;20411;-78
2023/01/14 04:56:07;;;;;;;0.10;0.10;;;;;;;8.37;71.41;101142.03;5132582;27;20042;-78
2023/01/14 04:58:33;;;;;;;0.10;0.10;;;;;;;8.42;71.40;101134.94;5140663;28;20068;-78
2023/01/14 05:01:00;;;;;;;0.20;0.20;;;;;;;8.42;71.91;101145.50;5134024;28;20052;-78
2023/01/14 05:03:27;;;;;;;1.48;1.38;;;;;;;8.43;71.43;101131.41;5139403;28;20106;-78
2023/01/14 05:05:53;;;;;;;0.10;0.10;;;;;;;8.49;71.58;101132.31;5141903;28;20104;-78
2023/01/14 05:08:20;;;;;;;0.10;0.10;;;;;;;8.49;71.26;101121.75;5137824;28;20047;-78
2023/01/14 05:10:49;;;;;;;0.10;0.10;;;;;;;8.47;71.92;101134.94;5115510;28;20020;-78
2023/01/14 05:13:16;;;;;;;0.28;0.28;;;;;;;8.53;71.56;101126.09;5125675;28;20042;-78
2023/01/14 05:15:44;;;;;;;0.20;0.20;;;;;;;8.55;71.46;101121.69;5121445;28;20035;-78
2023/01/14 05:18:13;;;;;;;0.68;0.28;;;;;;;8.55;71.52;101119.91;5119574;28;20031;-79
2023/01/14 05:20:40;;;;;;;0.10;0.10;;;;;;;8.58;71.12;101113.72;5107780;27;20037;-79
2023/01/14 05:23:10;;;;;;;0.10;0.10;;;;;;;8.57;71.10;101102.31;5114164;28;20380;-79
2023/01/14 05:25:37;;;;;;;0.10;0.10;;;;;;;8.61;71.18;101087.31;5118872;28;20118;-79
2023/01/14 05:28:06;;;;;;;0.10;0.10;;;;;;;8.64;71.01;101087.28;5117670;28;20031;-79
2023/01/14 05:30:33;;;;;;;0.20;0.20;;;;;;;8.61;70.97;101081.13;5114190;28;20088;-78
2023/01/14 05:32:59;;;;;;;0.10;0.10;;;;;;;8.65;71.11;101083.75;5118043;28;20027;-78
2023/01/14 05:35:26;;;;;;;7.78;3.50;;;;;;;8.62;70.70;101078.47;5116976;28;20043;-78
2023/01/14 05:37:52;;;;;;;0.10;0.10;;;;;;;8.64;70.59;101065.28;5116504;28;20027;-79
2023/01/14 05:40:18;;;;;;;0.08;0.08;;;;;;;8.64;70.46;101060.88;5107159;28;20032;-79
2023/01/14 05:45:38;;;;;;;0.10;0.10;;;;;;;8.62;71.07;101054.69;5109585;28;20036;-79
2023/01/14 05:48:05;;;;;;;0.10;0.10;;;;;;;8.60;70.16;101048.56;5113300;28;20024;-78
2023/01/14 05:50:32;;;;;;;0.10;0.10;;;;;;;8.66;70.65;101043.25;5118423;28;20081;-78
2023/01/14 05:52:58;;;;;;;0.20;0.20;;;;;;;8.68;70.59;101036.16;5113259;27;20055;-79
2023/01/14 05:55:24;;;;;;;0.10;0.10;;;;;;;8.66;70.28;101026.50;5123129;27;20036;-78
2023/01/14 05:57:50;;;;;;;1.15;0.32;;;;;;;8.65;70.02;101023.00;5111076;27;20032;-79
2023/01/14 06:06:20;;;;;;;0.10;0.10;;;;;;;8.69;70.13;101014.16;5118773;27;20047;-79
2023/01/14 06:08:35;;;;;;;0.15;0.15;;;;;;;8.73;70.44;100992.13;5116766;27;20069;-78
2023/01/14 06:11:01;;;;;;;0.10;0.10;;;;;;;8.72;70.23;100982.44;5116415;27;20058;-78
2023/01/14 06:13:27;;;;;;;0.10;0.10;;;;;;;8.73;70.56;100972.72;5116294;27;20031;-79
2023/01/14 06:15:55;;;;;;;0.10;0.10;;;;;;;8.73;70.62;100963.06;5123097;27;20028;-78
2023/01/14 06:18:23;;;;;;;0.17;0.17;;;;;;;8.73;70.40;100949.84;5124437;27;20398;-78
2023/01/14 06:20:53;;;;;;;0.10;0.10;;;;;;;8.79;70.44;100946.25;5127256;27;20043;-78
2023/01/14 06:23:20;;;;;;;0.10;0.10;;;;;;;8.77;70.31;100947.16;5124938;27;20027;-78
2023/01/14 06:25:48;;;;;;;0.17;0.17;;;;;;;8.74;70.42;100933.06;5115702;27;20688;-78
2023/01/14 06:28:16;;;;;;;0.15;0.15;;;;;;;8.73;70.87;100931.34;5125051;27;20024;-78
2023/01/14 06:30:42;;;;;;;2.65;2.55;;;;;;;8.77;70.72;100928.66;5113722;27;20043;-79
2023/01/14 06:33:09;;;;;;;0.10;0.10;;;;;;;8.78;70.90;100920.72;5117684;27;20491;-79
2023/01/14 06:35:41;;;;;;;0.15;0.15;;;;;;;8.77;71.10;100911.03;5121893;27;20039;-78
2023/01/14 06:38:08;;;;;;;1.33;1.33;;;;;;;8.73;70.93;100902.28;5119729;27;20456;-78
2023/01/14 06:40:35;;;;;;;0.10;0.10;;;;;;;8.70;71.12;100897.03;5122629;27;20619;-78
2023/01/14 06:43:01;;;;;;;0.30;0.30;;;;;;;8.68;71.23;100888.22;5118511;27;20043;-79
2023/01/14 06:45:27;;;;;;;0.10;0.10;;;;;;;8.61;71.62;100883.94;5105291;27;20028;-79
2023/01/14 06:47:54;;;;;;;0.20;0.20;;;;;;;8.65;72.20;100875.09;5108266;27;20032;-79
2023/01/14 06:50:20;;;;;;;0.10;0.10;;;;;;;8.64;72.10;100864.53;5110649;27;20531;-79
2023/01/14 06:52:48;;;;;;;0.10;0.10;;;;;;;8.59;71.97;100859.31;5113300;27;20027;-80
2023/01/14 06:55:15;;;;;;;0.40;0.40;;;;;;;8.61;72.50;100846.06;5106919;27;20028;-80
2023/01/14 06:57:42;;;;;;;0.10;0.10;;;;;;;8.63;72.16;100846.94;5105462;28;20733;-80
2023/01/14 07:00:10;;;;;;;0.10;0.10;;;;;;;8.60;72.22;100837.28;5098924;28;20109;-81
2023/01/14 07:02:36;;;;;;;0.10;0.10;;;;;;;8.54;73.07;100827.66;5104306;28;20020;-81
2023/01/14 07:05:02;;;;;;;0.05;0.05;;;;;;;8.54;72.99;100816.22;5107212;28;20040;-80
2023/01/14 07:07:28;;;;;;;0.10;0.10;;;;;;;8.59;72.84;100803.84;5129512;28;20051;-80
2023/01/14 07:09:56;;;;;;;0.10;0.10;;;;;;;8.55;73.11;100797.72;5131505;28;20044;-80
2023/01/14 07:12:22;;;;;;;0.10;0.10;;;;;;;8.52;73.45;100794.25;5130842;28;20065;-80
2023/01/14 07:14:48;;;;;;;0.10;0.10;;;;;;;8.52;73.53;100802.16;5127167;28;20022;-80
2023/01/14 07:17:14;;;;;;;0.20;0.20;;;;;;;8.45;73.61;100789.88;5129653;28;20046;-80
2023/01/14 07:19:41;;;;;;;0.10;0.10;;;;;;;8.47;74.28;100774.94;5136410;28;20024;-80
2023/01/14 07:22:07;;;;;;;0.10;0.10;;;;;;;8.46;74.42;100776.72;5128452;28;20039;-80
2023/01/14 07:24:33;;;;;;;0.10;0.10;;;;;;;8.48;74.35;100758.22;5134859;28;20031;-81
2023/01/14 07:26:59;;;;;;;0.10;0.10;;;;;;;8.52;73.80;100739.69;5112211;28;20402;-81
2023/01/14 07:29:25;;;;;;;0.20;0.20;;;;;;;8.53;74.11;100735.25;5112386;28;20031;-81
2023/01/14 07:31:52;;;;;;;0.10;0.10;;;;;;;8.50;74.27;100722.06;5110187;28;20039;-82
2023/01/14 07:34:18;;;;;;;0.15;0.15;;;;;;;8.49;74.24;100715.06;5114409;28;20027;-82
2023/01/14 07:36:44;;;;;;;0.40;0.40;;;;;;;8.50;74.43;100715.06;5125787;28;20483;-82
2023/01/14 07:39:10;;;;;;;0.10;0.10;;;;;;;8.50;74.72;100699.22;5124150;28;20032;-82
2023/01/14 07:41:36;;;;;;;0.10;0.10;;;;;;;8.53;74.52;100687.72;5111012;28;20110;-82
2023/01/14 07:44:04;;;;;;;0.15;0.15;;;;;;;8.48;74.94;100674.56;5111942;28;20447;-82
2023/01/14 07:46:30;;;;;;;0.10;0.10;;;;;;;8.51;74.84;100663.09;5111951;28;20020;-82
2023/01/14 07:48:56;;;;;;;0.10;0.10;;;;;;;8.55;74.96;100654.25;5106401;28;20536;-81
2023/01/14 07:51:23;;;;;;;0.20;0.20;;;;;;;8.53;75.35;100633.13;5114763;28;20027;-81
2023/01/14 07:53:50;;;;;;;0.10;0.10;;;;;;;8.54;75.52;100621.69;5112658;28;20070;-81
2023/01/14 07:56:16;;;;;;;0.10;0.10;;;;;;;8.56;75.13;100621.66;5111518;28;20111;-82
2023/01/14 07:58:43;;;;;;;0.10;0.10;;;;;;;8.58;75.64;100628.69;5110371;28;20084;-81
2023/01/14 08:01:10;;;;;;;0.10;0.10;;;;;;;8.57;75.66;100620.75;5108542;28;20036;-81
2023/01/14 08:03:37;;;;;;;0.10;0.10;;;;;;;8.54;75.59;100610.25;5110435;28;20027;-81
2023/01/14 08:06:04;;;;;;;0.20;0.20;;;;;;;8.58;76.00;100601.38;5102382;28;20054;-82
2023/01/14 08:08:31;;;;;;;0.10;0.10;;;;;;;8.60;75.93;100590.78;5119912;28;20084;-81
2023/01/14 08:11:01;;;;;;;1.27;1.27;;;;;;;8.59;75.94;100582.00;5114710;28;20038;-81
2023/01/14 08:13:27;;;;;;;0.10;0.10;;;;;;;8.59;76.10;100576.72;5107603;28;20030;-82
2023/01/14 08:15:54;;;;;;;0.10;0.10;;;;;;;8.61;76.45;100568.75;5102448;28;20123;-81
2023/01/14 08:18:20;;;;;;;0.10;0.10;;;;;;;8.67;76.20;100560.75;5106572;28;20452;-80
2023/01/14 08:20:47;;;;;;;0.15;0.15;;;;;;;8.72;76.24;100550.97;5112016;28;20406;-81
2023/01/14 08:23:13;;;;;;;0.15;0.15;;;;;;;8.66;76.82;100541.41;5114638;28;20111;-81
2023/01/14 08:25:39;;;;;;;0.10;0.10;;;;;;;8.70;77.07;100548.38;5105486;28;20164;-80
2023/01/14 08:28:05;;;;;;;0.10;0.10;;;;;;;8.77;76.55;100543.84;5112044;28;20036;-80
2023/01/14 08:30:31;;;;;;;0.10;0.10;;;;;;;8.83;76.61;100540.22;5104422;28;20048;-80
2023/01/14 08:32:58;;;;;;;0.10;0.10;;;;;;;8.88;76.79;100526.06;5110962;28;20040;-80
2023/01/14 08:35:24;;;;;;;0.10;0.10;;;;;;;8.85;76.86;100514.66;5115915;28;20032;-81
2023/01/14 08:37:50;;;;;;;0.10;0.10;;;;;;;8.87;76.82;100507.56;5102503;28;20032;-80
2023/01/14 08:40:18;;;;;;;0.20;0.20;;;;;;;8.90;77.08;100492.53;5107998;28;20927;-79
2023/01/14 08:42:44;;;;;;;0.10;0.10;;;;;;;8.96;76.85;100496.84;5106086;28;20032;-80
2023/01/14 08:45:10;;;;;;;0.10;0.10;;;;;;;8.99;76.84;100488.84;5114025;28;20089;-80
2023/01/14 08:47:36;;;;;;;0.47;0.47;;;;;;;9.00;76.94;100495.88;5104346;28;20408;-80
2023/01/14 08:50:03;;;;;;;0.10;0.10;;;;;;;9.05;77.13;100485.22;5103200;28;20031;-80
2023/01/14 08:52:30;;;;;;;0.40;0.40;;;;;;;9.12;76.86;100467.44;5107304;28;20468;-79
2023/01/14 08:54:56;;;;;;;0.10;0.10;;;;;;;9.18;76.77;100469.97;5132755;28;20020;-79
2023/01/14 08:57:23;;;;;;;0.10;0.10;;;;;;;9.16;77.00;100454.16;5123590;28;20694;-80
2023/01/14 08:59:49;;;;;;;0.10;0.10;;;;;;;9.18;76.79;100438.25;5113257;28;20585;-80
2023/01/14 09:02:16;;;;;;;0.10;0.10;;;;;;;9.19;77.03;100440.00;5122589;27;20076;-80
2023/01/14 09:04:42;;;;;;;0.10;0.10;;;;;;;9.21;77.46;100422.34;5113627;28;20061;-80
2023/01/14 09:18:12;;;;;;;0.10;0.10;;;;;;;9.38;77.09;100383.19;5113406;27;20042;-81
2023/01/14 09:20:42;;;;;;;0.10;0.10;;;;;;;9.36;77.35;100382.34;5115023;27;20028;-80
2023/01/14 09:23:09;;;;;;;0.10;0.10;;;;;;;9.45;77.59;100368.03;5124652;28;20173;-79
2023/01/14 09:25:36;;;;;;;0.10;0.10;;;;;;;9.47;77.27;100362.72;5118553;28;20126;-80
2023/01/14 09:28:05;;;;;;;0.20;0.20;;;;;;;9.51;77.48;100361.75;5102346;28;20059;-80
2023/01/14 09:30:31;;;;;;;0.10;0.10;;;;;;;9.53;77.56;100352.00;5100987;28;20020;-80
2023/01/14 09:32:58;;;;;;;0.10;0.10;;;;;;;9.55;77.43;100366.91;5109528;28;20020;-81
2023/01/14 09:35:24;;;;;;;0.10;0.10;;;;;;;9.56;77.23;100367.81;5108289;28;20024;-79
2023/01/14 09:37:50;;;;;;;5.38;2.95;;;;;;;9.60;77.12;100343.00;5119781;28;20605;-83
2023/01/14 09:40:17;;;;;;;0.10;0.10;;;;;;;9.57;77.50;100340.47;5117349;28;20035;-81
2023/01/14 09:42:49;;;;;;;1.25;0.65;;;;;;;9.68;77.15;100337.53;5118281;28;20031;-80
2023/01/14 09:45:35;;;;;;;0.20;0.20;;;;;;;9.71;76.93;100317.16;5103370;28;20054;-81
2023/01/14 09:48:16;;;;;;;0.10;0.10;;;;;;;9.71;77.44;100317.16;5102411;28;20028;-80
2023/01/14 09:51:14;;;;;;;0.10;0.10;;;;;;;9.78;77.55;100301.13;5101769;28;20068;-81
2023/01/14 09:57:36;;;;;;;0.10;0.10;;;;;;;9.80;77.53;100270.22;5077237;28;20399;-81
2023/01/14 10:00:42;;;;;;;0.30;0.30;;;;;;;9.85;77.23;100270.97;5073641;28;20044;-81
2023/01/14 10:06:14;;;;;;;0.53;0.53;;;;;;;9.90;77.58;100247.03;5116018;27;1176117;-81
2023/01/14 10:08:45;;;;;;;0.75;0.75;;;;;;;9.80;77.92;100241.13;5129385;28;20301;-83
2023/01/14 10:11:13;;;;;;;0.25;0.25;;;;;;;9.87;77.69;100232.13;5136550;28;20012;-80
2023/01/14 10:13:48;;;;;;;0.10;0.10;;;;;;;9.92;77.91;100224.03;5142669;28;20035;-80
2023/01/14 10:16:27;;;;;;;0.10;0.10;;;;;;;9.99;77.83;100209.72;5110814;28;20025;-81
2023/01/14 10:19:01;;;;;;;1.45;1.10;;;;;;;9.95;78.12;100195.72;5110262;28;20030;-80
2023/01/14 10:24:18;;;;;;;0.10;0.10;;;;;;;10.09;77.91;100144.19;5125741;27;1192440;-80
2023/01/14 10:26:48;;;;;;;0.10;0.10;;;;;;;10.10;78.08;100143.28;5152032;27;20058;-80
2023/01/14 10:29:18;;;;;;;0.10;0.10;;;;;;;10.12;78.07;100133.47;5149303;27;20118;-80
2023/01/14 10:31:53;;;;;;;0.10;0.10;;;;;;;10.16;77.86;100140.44;5155764;27;20162;-80
2023/01/14 10:34:28;;;;;;;0.10;0.10;;;;;;;10.17;78.13;100128.94;5157901;27;20094;-81
2023/01/14 10:36:54;;;;;;;0.10;0.10;;;;;;;10.13;78.64;100132.56;5144835;27;20023;-80
2023/01/14 10:39:20;;;;;;;0.10;0.10;;;;;;;10.21;78.53;100122.63;5143392;27;20042;-80
2023/01/14 10:41:48;;;;;;;0.10;0.10;;;;;;;10.30;78.34;100117.03;5147473;27;20559;-80
2023/01/14 10:44:28;;;;;;;0.10;0.10;;;;;;;10.32;78.37;100095.84;5147843;27;20084;-81
2023/01/14 10:47:01;;;;;;;0.10;0.10;;;;;;;10.44;78.24;100082.25;5147147;27;20023;-80
2023/01/14 10:49:45;;;;;;;0.10;0.10;;;;;;;10.46;78.29;100082.19;5147553;27;20055;-81
2023/01/14 10:52:32;;;;;;;0.20;0.20;;;;;;;10.55;78.32;100073.09;5145529;27;20023;-81
2023/01/14 10:55:01;;;;;;;0.30;0.30;;;;;;;10.42;78.93;100067.28;5148341;27;20023;-81
2023/01/14 10:57:32;;;;;;;0.10;0.10;;;;;;;10.46;78.62;100061.00;5149322;27;20049;-81
2023/01/14 10:59:59;;;;;;;0.10;0.10;;;;;;;10.51;78.62;100053.78;5146399;27;20034;-81
2023/01/14 11:05:06;;;;;;;0.10;0.10;;;;;;;10.60;79.00;100047.31;5069950;27;20461;-79
2023/01/14 11:07:37;;;;;;;0.20;0.20;;;;;;;10.58;79.15;100026.19;5078226;28;20033;-78
2023/01/14 11:10:21;;;;;;;0.10;0.10;;;;;;;10.67;78.65;100020.56;5076895;28;20051;-83
2023/01/14 11:12:47;;;;;;;0.10;0.10;;;;;;;10.67;78.55;100012.59;5067728;28;20511;-81
2023/01/14 11:15:35;;;;;;;0.10;0.10;;;;;;;10.70;78.71;100006.34;5064412;28;20060;-79
2023/01/14 11:18:23;;;;;;;0.00;0.00;;;;;;;10.73;79.14;100015.97;5061893;28;20049;-79
2023/01/14 11:21:12;;;;;;;0.15;0.15;;;;;;;10.73;78.87;99995.66;5053468;28;20061;-79
2023/01/14 11:23:42;;;;;;;0.10;0.10;;;;;;;10.80;78.64;100002.47;5063682;28;20377;-79
2023/01/14 11:26:12;;;;;;;0.00;0.00;;;;;;;10.80;78.45;99978.63;5059097;28;20119;-78
2023/01/14 11:28:45;;;;;;;0.10;0.10;;;;;;;10.90;78.55;99965.91;5066394;28;20097;-77
2023/01/14 11:31:12;;;;;;;0.63;0.63;;;;;;;10.92;78.69;99974.66;5065822;28;20255;-81
2023/01/14 11:33:48;;;;;;;0.10;0.10;;;;;;;10.94;78.78;99970.19;5067418;28;20033;-79
2023/01/14 11:36:21;;;;;;;0.10;0.10;;;;;;;10.96;78.81;99954.22;5064457;28;20404;-79
2023/01/14 11:38:48;;;;;;;0.20;0.20;;;;;;;10.92;79.02;99950.81;5067912;28;20024;-80
2023/01/14 11:44:22;;;;;;;0.20;0.20;;;;;;;11.03;78.87;99923.94;5082891;28;20421;-78
2023/01/14 11:47:08;;;;;;;;;;;;;;;11.14;78.00;99934.13;5046944;28;20115;-79
2023/01/14 11:49:34;;;;;;;0.20;0.20;;;;;;;11.12;78.46;99936.84;5047683;28;19912;-80
2023/01/14 11:52:04;;;;;;;0.10;0.10;;;;;;;11.14;78.59;99918.22;5050748;28;20575;-80
2023/01/14 11:57:16;;;;;;;0.10;0.10;;;;;;;11.09;78.67;99901.63;5112274;27;20402;-79
2023/01/14 11:59:44;;;;;;;0.52;0.52;;;;;;;11.21;77.99;99908.25;5109322;28;20055;-79
2023/01/14 12:05:21;;;;;;;0.10;0.10;;;;;;;11.22;77.97;99892.28;5109420;27;20403;-81
2023/01/14 12:07:52;;;;;;;0.20;0.20;;;;;;;11.27;78.34;99873.56;5089642;28;20137;-80
2023/01/14 12:10:27;;;;;;;0.10;0.10;;;;;;;11.25;78.70;99867.44;5094791;28;20161;-81
2023/01/14 12:18:31;;;;;;;0.38;0.38;;;;;;;11.28;78.48;99854.94;5103582;27;20402;-80
2023/01/14 12:21:00;;;;;;;0.10;0.10;;;;;;;11.30;78.54;99847.78;5100537;28;20035;-79
2023/01/14 12:23:31;;;;;;;0.10;0.10;;;;;;;11.36;78.84;99833.41;5105549;28;20456;-78
2023/01/14 12:26:02;;;;;;;0.10;0.10;;;;;;;11.37;78.31;99834.28;5089518;28;20064;-78
2023/01/14 12:28:39;;;;;;;0.10;0.10;;;;;;;11.39;78.34;99825.34;5083986;28;20058;-79
2023/01/14 12:31:20;;;;;;;0.10;0.10;;;;;;;11.51;78.55;99813.38;5081149;28;20388;-79
2023/01/14 12:36:42;;;;;;;0.10;0.10;;;;;;;11.47;78.65;99817.06;5120769;27;20388;-80
2023/01/14 12:45:42;;;;;;;0.10;0.10;;;;;;;11.49;78.90;99775.44;5108654;28;20100;-79
2023/01/14 12:48:09;;;;;;;0.10;0.10;;;;;;;11.42;78.92;99755.41;5124108;28;20487;-80
2023/01/14 12:50:45;;;;;;;0.10;0.10;;;;;;;11.50;79.50;99769.19;5123811;28;20027;-80
2023/01/14 12:53:23;;;;;;;0.10;0.10;;;;;;;11.54;79.68;99757.53;5097980;28;20060;-79
2023/01/14 12:55:52;;;;;;;0.10;0.10;;;;;;;11.60;78.94;99751.97;5098986;28;20028;-79
2023/01/14 12:58:23;;;;;;;0.10;0.10;;;;;;;11.63;79.08;99749.19;5108817;28;20028;-79
2023/01/14 13:00:53;;;;;;;0.17;0.17;;;;;;;11.55;79.63;99751.31;5111310;28;20062;-79
2023/01/14 13:03:39;;;;;;;0.10;0.10;;;;;;;11.73;78.99;99738.22;5104912;28;20043;-78
2023/01/14 13:06:09;;;;;;;0.20;0.20;;;;;;;11.71;78.72;99742.69;5108691;28;20113;-79
2023/01/14 13:08:37;;;;;;;0.00;0.00;;;;;;;11.73;79.03;99728.44;5106301;28;20034;-79
2023/01/14 13:13:42;;;;;;;0.10;0.10;;;;;;;11.70;79.61;99717.09;5110524;27;20392;-80